createdAt,value
2019-01-25T00:00:32.475Z,74.37
2019-01-25T00:03:10.210Z,73.33
2019-01-25T00:05:43.717Z,73.97
2019-01-25T00:08:14.842Z,68.40
2019-01-25T00:10:45.618Z,70.77
2019-01-25T00:13:16.446Z,78.93
2019-01-25T00:15:48.883Z,69.57
2019-01-25T00:18:19.559Z,71.33
2019-01-25T00:20:53.577Z,65.03
2019-01-25T00:23:25.939Z,80.20
2019-01-25T00:25:56.606Z,72.20
2019-01-25T00:28:27.768Z,79.47
2019-01-25T00:30:58.577Z,71.73
2019-01-25T00:33:29.198Z,79.80
2019-01-25T00:35:59.898Z,76.27
2019-01-25T00:38:30.622Z,81.73
2019-01-25T00:41:01.298Z,74.70
2019-01-25T00:43:33.361Z,79.40
2019-01-25T00:46:04.035Z,82.80
2019-01-25T00:48:34.854Z,83.17
2019-01-25T00:51:05.873Z,77.50
2019-01-25T00:53:36.703Z,84.57
2019-01-25T00:56:07.862Z,77.77
2019-01-25T00:58:38.511Z,72.77
2019-01-25T01:01:09.895Z,83.67
2019-01-25T01:03:40.753Z,78.90
2019-01-25T01:06:11.629Z,81.17
2019-01-25T01:08:42.493Z,81.33
2019-01-25T01:11:13.478Z,79.67
2019-01-25T01:13:43.954Z,74.37
2019-01-25T01:16:14.664Z,72.50
2019-01-25T01:18:48.442Z,75.83
2019-01-25T01:21:19.498Z,76.33
2019-01-25T01:23:52.974Z,78.37
2019-01-25T01:26:23.936Z,79.07
2019-01-25T01:28:55.010Z,84.80
2019-01-25T01:31:30.099Z,72.60
2019-01-25T01:34:00.887Z,70.87
2019-01-25T01:36:33.516Z,67.83
2019-01-25T01:39:05.526Z,77.77
2019-01-25T01:41:39.194Z,82.77
2019-01-25T01:44:10.323Z,75.20
2019-01-25T01:46:42.415Z,75.87
2019-01-25T01:49:13.292Z,76.80
2019-01-25T01:51:43.991Z,78.37
2019-01-25T01:54:16.275Z,63.67
2019-01-25T01:56:47.047Z,79.57
2019-01-25T01:59:23.904Z,84.97
2019-01-25T02:01:54.893Z,69.40
2019-01-25T02:04:25.694Z,72.90
2019-01-25T02:06:59.553Z,73.50
2019-01-25T02:09:30.266Z,73.43
2019-01-25T02:12:01.446Z,70.93
2019-01-25T02:14:35.309Z,80.43
2019-01-25T02:17:09.181Z,73.63
2019-01-25T02:19:40.217Z,70.80
2019-01-25T02:22:11.720Z,76.10
2019-01-25T02:24:42.472Z,76.87
2019-01-25T02:27:17.604Z,70.07
2019-01-25T02:29:48.886Z,80.13
2019-01-25T02:32:19.593Z,74.20
2019-01-25T02:34:50.668Z,74.70
2019-01-25T02:37:22.620Z,78.70
2019-01-25T02:39:53.285Z,79.73
2019-01-25T02:42:24.112Z,81.20
2019-01-25T02:44:54.875Z,72.60
2019-01-25T02:47:25.767Z,70.57
2019-01-25T02:49:56.639Z,86.17
2019-01-25T02:52:27.994Z,78.50
2019-01-25T02:54:58.838Z,67.37
2019-01-25T02:57:29.568Z,79.40
2019-01-25T03:00:00.383Z,77.53
2019-01-25T03:02:31.418Z,79.37
2019-01-25T03:05:02.288Z,76.70
2019-01-25T03:07:33.596Z,77.33
2019-01-25T03:10:05.394Z,76.70
2019-01-25T03:12:36.356Z,81.73
2019-01-25T03:15:08.632Z,78.17
2019-01-25T03:17:39.469Z,75.30
2019-01-25T03:20:10.571Z,76.40
2019-01-25T03:22:46.877Z,85.97
2019-01-25T03:25:19.730Z,78.27
2019-01-25T03:27:50.395Z,76.63
2019-01-25T03:30:22.334Z,78.33
2019-01-25T03:32:56.161Z,77.73
2019-01-25T03:35:27.447Z,78.70
2019-01-25T03:37:58.548Z,79.67
2019-01-25T03:40:29.723Z,74.27
2019-01-25T03:43:01.833Z,78.43
2019-01-25T03:45:44.530Z,74.60
2019-01-25T03:48:35.681Z,77.80
2019-01-25T03:51:04.353Z,75.70
2019-01-25T03:53:35.142Z,71.77
2019-01-25T03:56:05.972Z,77.40
2019-01-25T03:58:36.746Z,81.00
2019-01-25T04:01:09.499Z,77.57
2019-01-25T04:03:40.259Z,76.40
2019-01-25T04:06:11.159Z,76.47
2019-01-25T04:08:52.266Z,75.83
2019-01-25T04:11:23.153Z,77.03
2019-01-25T04:13:54.190Z,79.93
2019-01-25T04:16:25.025Z,78.00
2019-01-25T04:18:55.645Z,84.67
2019-01-25T04:21:26.400Z,78.97
2019-01-25T04:23:57.272Z,81.47
2019-01-25T04:26:29.460Z,83.57
2019-01-25T04:29:00.637Z,76.37
2019-01-25T04:31:31.265Z,79.37
2019-01-25T04:34:03.114Z,78.50
2019-01-25T04:36:34.364Z,74.13
2019-01-25T04:39:07.464Z,80.10
2019-01-25T04:41:38.194Z,75.93
2019-01-25T04:44:12.078Z,71.87
2019-01-25T04:46:43.301Z,77.40
2019-01-25T04:49:14.128Z,78.43
2019-01-25T04:51:44.726Z,77.00
2019-01-25T04:54:17.063Z,78.23
2019-01-25T04:56:47.698Z,83.47
2019-01-25T04:59:19.008Z,76.27
2019-01-25T05:01:49.747Z,74.83
2019-01-25T05:04:20.305Z,70.70
2019-01-25T05:06:51.111Z,80.23
2019-01-25T05:09:21.795Z,78.73
2019-01-25T05:11:52.334Z,78.43
2019-01-25T05:14:23.481Z,78.00
2019-01-25T05:17:00.082Z,73.13
2019-01-25T05:19:38.660Z,76.37
2019-01-25T05:22:09.304Z,81.70
2019-01-25T05:24:40.151Z,81.53
2019-01-25T05:27:12.621Z,73.03
2019-01-25T05:29:52.881Z,80.80
2019-01-25T05:32:23.526Z,79.30
2019-01-25T05:34:54.574Z,81.83
2019-01-25T05:37:25.663Z,69.30
2019-01-25T05:39:59.573Z,74.90
2019-01-25T05:42:32.112Z,81.80
2019-01-25T05:45:08.579Z,67.60
2019-01-25T05:47:43.543Z,74.47
2019-01-25T05:50:15.255Z,78.17
2019-01-25T05:52:45.882Z,79.63
2019-01-25T05:55:23.233Z,82.27
2019-01-25T05:58:00.486Z,73.77
2019-01-25T06:00:37.296Z,80.00
2019-01-25T06:03:09.990Z,75.63
2019-01-25T06:05:42.840Z,75.53
2019-01-25T06:08:33.177Z,79.27
2019-01-25T06:11:10.938Z,82.50
2019-01-25T06:13:45.673Z,82.93
2019-01-25T06:16:16.639Z,83.97
2019-01-25T06:18:47.219Z,81.03
2019-01-25T06:21:18.215Z,80.13
2019-01-25T06:23:52.646Z,81.63
2019-01-25T06:26:23.101Z,75.60
2019-01-25T06:28:56.539Z,79.10
2019-01-25T06:31:30.097Z,79.53
2019-01-25T06:34:00.826Z,84.57
2019-01-25T06:36:31.943Z,77.17
2019-01-25T06:39:02.799Z,87.50
2019-01-25T06:41:33.245Z,79.97
2019-01-25T06:44:03.616Z,74.00
2019-01-25T06:46:34.352Z,86.60
2019-01-25T06:49:08.180Z,81.07
2019-01-25T06:51:38.567Z,78.57
2019-01-25T06:54:12.064Z,84.87
2019-01-25T06:56:42.997Z,75.30
2019-01-25T06:59:19.234Z,79.43
2019-01-25T07:02:08.760Z,87.20
2019-01-25T07:04:40.623Z,80.53
2019-01-25T07:07:23.278Z,72.97
2019-01-25T07:09:56.913Z,91.20
2019-01-25T07:12:29.743Z,81.50
2019-01-25T07:15:00.869Z,76.77
2019-01-25T07:17:31.768Z,85.37
2019-01-25T07:20:02.275Z,79.67
2019-01-25T07:22:35.794Z,98.17
2019-01-25T07:25:09.096Z,99.50
2019-01-25T07:27:39.709Z,100.10
2019-01-25T07:30:16.957Z,98.87
2019-01-25T07:32:47.594Z,97.83
2019-01-25T07:35:21.102Z,108.83
2019-01-25T07:37:51.769Z,120.77
2019-01-25T07:40:22.424Z,114.40
2019-01-25T07:42:53.370Z,109.77
2019-01-25T07:45:24.467Z,107.47
2019-01-25T07:47:55.236Z,111.60
2019-01-25T07:50:25.862Z,103.07
2019-01-25T07:52:58.634Z,107.17
2019-01-25T07:55:29.395Z,102.77
2019-01-25T07:57:59.898Z,102.07
2019-01-25T08:00:31.573Z,107.10
2019-01-25T08:03:07.750Z,106.40
2019-01-25T08:05:45.214Z,112.23
2019-01-25T08:08:17.207Z,104.43
2019-01-25T08:10:49.948Z,97.93
2019-01-25T08:13:22.461Z,106.80
2019-01-25T08:15:53.212Z,107.57
2019-01-25T08:18:24.089Z,98.77
2019-01-25T08:20:54.884Z,108.50
2019-01-25T08:23:25.586Z,117.00
2019-01-25T08:25:59.775Z,114.30
2019-01-25T08:28:30.685Z,101.77
2019-01-25T08:31:01.244Z,113.80
2019-01-25T08:33:31.789Z,106.70
2019-01-25T08:36:03.983Z,105.23
2019-01-25T08:38:35.673Z,99.83
2019-01-25T08:41:07.709Z,104.33
2019-01-25T08:43:38.233Z,108.63
2019-01-25T08:46:14.126Z,96.80
2019-01-25T08:48:47.985Z,110.17
2019-01-25T08:51:18.715Z,106.53
2019-01-25T08:53:49.471Z,108.07
2019-01-25T08:56:20.278Z,105.40
2019-01-25T08:58:51.471Z,107.33
2019-01-25T09:01:25.319Z,108.57
2019-01-25T09:03:57.301Z,112.83
2019-01-25T09:06:28.104Z,106.80
2019-01-25T09:09:00.242Z,118.63
2019-01-25T09:11:32.658Z,108.33
2019-01-25T09:14:03.626Z,110.83
2019-01-25T09:16:40.146Z,118.07
2019-01-25T09:19:16.718Z,107.40
2019-01-25T09:21:47.521Z,111.83
2019-01-25T09:24:32.224Z,122.80
2019-01-25T09:27:06.578Z,120.57
2019-01-25T09:29:40.120Z,115.53
2019-01-25T09:32:18.776Z,111.27
2019-01-25T09:34:49.482Z,106.80
2019-01-25T09:37:24.086Z,104.43
2019-01-25T09:39:54.929Z,116.40
2019-01-25T09:42:32.467Z,112.37
2019-01-25T09:45:08.292Z,103.90
2019-01-25T09:47:43.401Z,114.53
2019-01-25T09:50:21.069Z,106.67
2019-01-25T09:52:56.287Z,110.27
2019-01-25T09:55:27.385Z,112.73
2019-01-25T09:58:04.740Z,116.83
2019-01-25T10:00:53.393Z,118.83
2019-01-25T10:03:27.101Z,123.70
2019-01-25T10:05:57.857Z,115.90
2019-01-25T10:08:30.790Z,116.83
2019-01-25T10:11:08.718Z,112.90
2019-01-25T10:13:39.395Z,112.47
2019-01-25T10:16:16.357Z,108.73
2019-01-25T10:18:49.059Z,126.50
2019-01-25T10:21:21.365Z,120.43
2019-01-25T10:23:59.332Z,123.27
2019-01-25T10:26:33.226Z,122.27
2019-01-25T10:29:06.927Z,117.63
2019-01-25T10:31:38.569Z,112.57
2019-01-25T10:34:09.184Z,104.83
2019-01-25T10:36:42.049Z,107.13
2019-01-25T10:39:13.474Z,99.93
2019-01-25T10:41:47.144Z,117.80
2019-01-25T10:44:17.953Z,99.97
2019-01-25T10:46:52.998Z,109.13
2019-01-25T10:49:47.501Z,119.03
2019-01-25T10:52:25.530Z,119.33
2019-01-25T10:54:56.625Z,106.97
2019-01-25T10:57:29.726Z,106.00
2019-01-25T11:00:04.015Z,110.70
2019-01-25T11:02:39.333Z,93.10
2019-01-25T11:05:15.090Z,93.03
2019-01-25T11:07:48.938Z,91.97
2019-01-25T11:10:25.186Z,100.77
2019-01-25T11:13:02.232Z,95.83
2019-01-25T11:15:36.684Z,87.23
2019-01-25T11:18:10.846Z,88.50
2019-01-25T11:20:41.433Z,90.03
2019-01-25T11:23:13.364Z,89.17
2019-01-25T11:25:46.242Z,90.83
2019-01-25T11:28:16.706Z,85.20
2019-01-25T11:30:49.707Z,81.77
2019-01-25T11:33:24.130Z,79.57
2019-01-25T11:35:57.225Z,82.23
2019-01-25T11:38:31.200Z,78.63
2019-01-25T11:41:06.345Z,83.70
2019-01-25T11:43:43.054Z,79.80
2019-01-25T11:46:18.668Z,71.63
2019-01-25T11:51:45.115Z,74.67
2019-01-25T11:54:20.066Z,77.83
2019-01-25T11:56:55.392Z,71.57
2019-01-25T11:59:29.930Z,76.07
2019-01-25T12:02:03.487Z,75.17
2019-01-25T12:04:39.025Z,73.10
2019-01-25T12:07:14.799Z,72.90
2019-01-25T12:10:03.048Z,68.10
2019-01-25T12:12:36.795Z,74.20
2019-01-25T12:15:11.550Z,73.07
2019-01-25T12:17:50.531Z,67.53
2019-01-25T12:20:32.985Z,70.83
2019-01-25T12:23:06.445Z,69.80
2019-01-25T12:25:55.148Z,69.17
2019-01-25T12:28:37.436Z,66.53
2019-01-25T12:31:16.588Z,69.60
2019-01-25T12:33:51.341Z,80.23
2019-01-25T12:36:21.805Z,73.30
2019-01-25T12:38:52.267Z,71.13
2019-01-25T12:41:22.845Z,68.57
2019-01-25T12:43:58.019Z,65.80
2019-01-25T12:46:29.995Z,66.43
2019-01-25T12:49:03.625Z,61.20
2019-01-25T12:51:58.716Z,65.13
2019-01-25T12:54:30.712Z,57.13
2019-01-25T12:57:06.042Z,57.33
2019-01-25T12:59:40.171Z,61.63
2019-01-25T13:02:10.602Z,61.67
2019-01-25T13:04:44.162Z,54.87
2019-01-25T13:07:18.163Z,52.93
2019-01-25T13:09:48.778Z,55.60
2019-01-25T13:12:19.649Z,62.77
2019-01-25T13:14:51.162Z,56.07
2019-01-25T13:17:24.088Z,50.73
2019-01-25T13:19:57.154Z,43.60
2019-01-25T13:22:28.180Z,42.37
2019-01-25T13:25:00.811Z,51.57
2019-01-25T13:27:31.272Z,42.47
2019-01-25T13:30:03.165Z,43.17
2019-01-25T13:32:41.597Z,41.47
2019-01-25T13:35:12.453Z,50.07
2019-01-25T13:37:49.565Z,43.93
2019-01-25T13:40:23.642Z,39.73
2019-01-25T13:43:06.909Z,44.50
2019-01-25T13:45:37.228Z,41.47
2019-01-25T13:48:08.012Z,45.73
2019-01-25T13:50:39.748Z,44.70
2019-01-25T13:53:12.210Z,41.83
2019-01-25T13:55:45.264Z,44.37
2019-01-25T13:58:15.876Z,43.17
2019-01-25T14:00:46.643Z,48.30
2019-01-25T14:03:20.509Z,48.37
2019-01-25T14:05:57.410Z,47.57
2019-01-25T14:08:29.484Z,37.90
2019-01-25T14:11:00.555Z,42.37
2019-01-25T14:13:34.175Z,43.57
2019-01-25T14:16:03.480Z,37.30
2019-01-25T14:18:36.969Z,40.27
2019-01-25T14:21:08.891Z,38.87
2019-01-25T14:23:40.835Z,34.77
2019-01-25T14:26:15.470Z,33.30
2019-01-25T14:28:45.876Z,38.27
2019-01-25T14:31:20.121Z,36.70
2019-01-25T14:33:54.147Z,31.23
2019-01-25T14:36:27.957Z,32.57
2019-01-25T14:38:58.390Z,34.67
2019-01-25T14:41:33.173Z,30.53
2019-01-25T14:44:07.633Z,33.20
2019-01-25T14:46:40.973Z,34.10
2019-01-25T14:49:11.886Z,32.53
2019-01-25T14:51:45.085Z,31.50
2019-01-25T14:54:18.910Z,34.03
2019-01-25T14:56:50.393Z,28.40
2019-01-25T14:59:27.826Z,35.80
2019-01-25T15:02:01.743Z,39.13
2019-01-25T15:04:34.080Z,35.93
2019-01-25T15:07:08.594Z,37.60
2019-01-25T15:09:49.932Z,39.00
2019-01-25T15:12:34.472Z,37.00
2019-01-25T15:15:16.158Z,39.97
2019-01-25T15:17:50.342Z,35.33
2019-01-25T15:20:22.199Z,34.37
2019-01-25T15:23:02.233Z,41.33
2019-01-25T15:25:33.123Z,40.03
2019-01-25T15:28:04.028Z,36.87
2019-01-25T15:30:36.832Z,36.57
2019-01-25T15:33:07.547Z,35.60
2019-01-25T15:35:40.108Z,45.93
2019-01-25T15:38:12.132Z,38.47
2019-01-25T15:40:44.517Z,39.07
2019-01-25T15:43:21.470Z,40.97
2019-01-25T15:45:55.468Z,32.43
2019-01-25T15:48:26.147Z,38.77
2019-01-25T15:50:58.354Z,39.90
2019-01-25T15:53:29.036Z,40.63
2019-01-25T15:56:01.427Z,30.10
2019-01-25T15:58:47.316Z,41.07
2019-01-25T16:01:22.835Z,31.20
2019-01-25T16:03:59.188Z,32.20
2019-01-25T16:06:33.788Z,36.27
2019-01-25T16:09:06.150Z,35.73
2019-01-25T16:12:02.685Z,36.60
2019-01-25T16:14:38.993Z,29.37
2019-01-25T16:17:14.441Z,29.63
2019-01-25T16:19:46.696Z,30.90
2019-01-25T16:22:25.961Z,35.37
2019-01-25T16:24:56.384Z,30.30
2019-01-25T16:27:28.790Z,31.43
2019-01-25T16:29:59.346Z,36.60
2019-01-25T16:32:30.532Z,41.97
2019-01-25T16:35:01.356Z,34.40
2019-01-25T16:37:34.322Z,41.53
2019-01-25T16:40:06.022Z,31.87
2019-01-25T16:42:40.967Z,38.33
2019-01-25T16:45:20.972Z,35.97
2019-01-25T16:47:54.492Z,32.33
2019-01-25T16:50:30.895Z,36.30
2019-01-25T16:53:02.966Z,42.23
2019-01-25T16:55:39.944Z,35.33
2019-01-25T16:58:13.470Z,38.30
2019-01-25T17:00:48.648Z,41.07
2019-01-25T17:03:26.011Z,36.97
2019-01-25T17:05:59.098Z,39.63
2019-01-25T17:08:32.976Z,39.50
2019-01-25T17:11:06.927Z,38.10
2019-01-25T17:13:40.581Z,40.80
2019-01-25T17:16:32.845Z,38.07
2019-01-25T17:19:05.509Z,37.07
2019-01-25T17:21:36.120Z,37.53
2019-01-25T17:24:07.266Z,39.97
2019-01-25T17:26:37.975Z,40.00
2019-01-25T17:29:13.156Z,34.60
2019-01-25T17:31:47.974Z,39.97
2019-01-25T17:34:18.642Z,40.30
2019-01-25T17:36:54.792Z,39.67
2019-01-25T17:39:25.350Z,52.20
2019-01-25T17:41:57.903Z,44.70
2019-01-25T17:44:28.645Z,40.33
2019-01-25T17:47:03.770Z,41.80
2019-01-25T17:49:34.698Z,40.33
2019-01-25T17:52:09.080Z,39.47
2019-01-25T17:54:42.882Z,44.60
2019-01-25T17:57:23.256Z,39.87
2019-01-25T18:00:09.765Z,38.73
2019-01-25T18:02:40.299Z,42.07
2019-01-25T18:05:11.400Z,36.43
2019-01-25T18:07:42.096Z,31.53
2019-01-25T18:10:17.107Z,37.80
2019-01-25T18:12:49.459Z,38.07
2019-01-25T18:15:21.536Z,34.33
2019-01-25T18:17:55.366Z,35.67
2019-01-25T18:20:26.142Z,39.20
2019-01-25T18:23:00.295Z,36.70
2019-01-25T18:25:37.633Z,33.50
2019-01-25T18:28:17.802Z,33.80
2019-01-25T18:30:53.377Z,33.53
2019-01-25T18:33:26.921Z,35.20
2019-01-25T18:36:00.100Z,33.90
2019-01-25T18:38:33.883Z,37.23
2019-01-25T18:41:07.656Z,33.87
2019-01-25T18:43:38.514Z,34.80
2019-01-25T18:46:09.454Z,31.20
2019-01-25T18:48:40.401Z,33.00
2019-01-25T18:51:16.055Z,37.13
2019-01-25T18:53:46.770Z,34.23
2019-01-25T18:56:18.814Z,36.37
2019-01-25T18:58:53.563Z,32.50
2019-01-25T19:01:25.557Z,29.20
2019-01-25T19:03:56.795Z,36.63
2019-01-25T19:06:32.080Z,33.37
2019-01-25T19:09:05.960Z,33.20
2019-01-25T19:11:41.223Z,31.00
2019-01-25T19:14:12.159Z,29.20
2019-01-25T19:16:48.472Z,33.07
2019-01-25T19:19:22.531Z,35.67
2019-01-25T19:21:59.432Z,27.07
2019-01-25T19:24:30.120Z,30.27
2019-01-25T19:27:02.812Z,38.27
2019-01-25T19:29:36.826Z,34.57
2019-01-25T19:32:10.812Z,34.20
2019-01-25T19:34:46.031Z,35.50
2019-01-25T19:37:31.450Z,38.20
2019-01-25T19:40:12.862Z,29.83
2019-01-25T19:43:00.457Z,39.13
2019-01-25T19:45:31.074Z,38.17
2019-01-25T19:48:06.683Z,37.43
2019-01-25T19:50:44.347Z,37.53
2019-01-25T19:53:33.270Z,38.33
2019-01-25T19:56:12.098Z,34.67
2019-01-25T19:58:48.659Z,39.40
2019-01-25T20:01:23.667Z,38.37
2019-01-25T20:03:57.305Z,36.77
2019-01-25T20:06:29.988Z,36.20
2019-01-25T20:09:03.208Z,37.00
2019-01-25T20:11:39.234Z,36.17
2019-01-25T20:14:11.430Z,41.63
2019-01-25T20:16:46.847Z,36.60
2019-01-25T20:19:17.581Z,33.37
2019-01-25T20:21:48.433Z,38.77
2019-01-25T20:24:28.526Z,41.63
2019-01-25T20:27:08.428Z,41.93
2019-01-25T20:29:50.777Z,38.77
2019-01-25T20:32:23.089Z,46.90
2019-01-25T20:35:02.647Z,44.30
2019-01-25T20:37:40.939Z,42.83
2019-01-25T20:40:13.394Z,48.37
2019-01-25T20:42:46.997Z,42.80
2019-01-25T20:45:26.846Z,44.90
2019-01-25T20:47:52.826Z,46.03
2019-01-25T20:50:28.730Z,46.00
2019-01-25T20:53:03.576Z,46.70
2019-01-25T20:55:37.342Z,39.13
2019-01-25T20:58:11.869Z,47.27
2019-01-25T21:00:53.114Z,45.57
2019-01-25T21:03:29.305Z,45.90
2019-01-25T21:06:02.954Z,47.37
2019-01-25T21:08:40.651Z,48.40
2019-01-25T21:11:13.033Z,46.23
2019-01-25T21:13:43.594Z,54.17
2019-01-25T21:16:17.126Z,54.23
2019-01-25T21:18:51.062Z,53.00
2019-01-25T21:21:24.717Z,53.17
2019-01-25T21:23:55.392Z,59.83
2019-01-25T21:26:36.261Z,58.47
2019-01-25T21:29:08.747Z,52.40
2019-01-25T21:31:39.989Z,62.40
2019-01-25T21:34:16.385Z,52.57
2019-01-25T21:36:47.203Z,54.30
2019-01-25T21:39:20.962Z,56.87
2019-01-25T21:41:54.017Z,58.67
2019-01-25T21:44:27.840Z,51.40
2019-01-25T21:47:00.736Z,56.20
2019-01-25T21:49:35.523Z,59.90
2019-01-25T21:52:09.439Z,57.57
2019-01-25T21:54:40.706Z,56.70
2019-01-25T21:57:14.718Z,53.47
2019-01-25T21:59:49.212Z,55.90
2019-01-25T22:02:22.793Z,53.43
2019-01-25T22:04:53.544Z,57.50
2019-01-25T22:07:27.349Z,52.57
2019-01-25T22:09:58.223Z,49.80
2019-01-25T22:12:29.198Z,53.63
2019-01-25T22:15:03.285Z,53.10
2019-01-25T22:17:34.073Z,52.47
2019-01-25T22:20:11.078Z,51.20
2019-01-25T22:22:49.266Z,52.07
2019-01-25T22:25:23.185Z,42.00
2019-01-25T22:28:00.179Z,44.87
2019-01-25T22:30:30.989Z,45.10
2019-01-25T22:33:10.730Z,41.63
2019-01-25T22:35:41.533Z,42.67
2019-01-25T22:38:20.158Z,39.57
2019-01-25T22:40:53.625Z,43.83
2019-01-25T22:43:25.767Z,45.60
2019-01-25T22:45:58.727Z,40.53
2019-01-25T22:48:31.281Z,39.73
2019-01-25T22:51:27.726Z,38.43
2019-01-25T22:54:02.116Z,49.00
2019-01-25T22:56:37.610Z,39.70
2019-01-25T22:59:11.077Z,40.90
2019-01-25T23:01:41.583Z,41.73
2019-01-25T23:04:51.078Z,43.60
2019-01-25T23:07:35.048Z,41.17
2019-01-25T23:10:22.754Z,41.47
2019-01-25T23:12:57.543Z,42.80
2019-01-25T23:15:32.525Z,38.03
2019-01-25T23:18:07.673Z,45.93
2019-01-25T23:20:39.895Z,39.53
2019-01-25T23:23:12.313Z,41.57
2019-01-25T23:25:44.630Z,38.43
2019-01-25T23:28:15.410Z,39.93
2019-01-25T23:30:46.266Z,40.20
2019-01-25T23:33:17.439Z,39.77
2019-01-25T23:35:52.563Z,39.73
2019-01-25T23:38:28.202Z,37.77
2019-01-25T23:40:59.163Z,39.80
2019-01-25T23:43:35.023Z,41.10
2019-01-25T23:46:13.855Z,34.50
2019-01-25T23:48:45.299Z,39.67
2019-01-25T23:51:23.049Z,39.90
2019-01-25T23:53:56.555Z,35.70
2019-01-25T23:56:27.340Z,38.90
2019-01-25T23:59:01.272Z,34.37
